| time (UTC) | temp C | wind direction | speed KPH | gust KPH | rain 1hr cm | rain 24hr cm | rain mn cm | humidity % | barometer mb |
| 20260507211539 | 13 | 265 | 3.2 | 6.4 | 0.00 | 0.41 | 0.41 | 76 | 1013.1 |
| 20260507210038 | 14 | 265 | 0.0 | 3.2 | 0.00 | 0.41 | 0.41 | 77 | 1013.1 |
| 20260507204537 | 14 | 265 | 1.6 | 4.8 | 0.00 | 0.41 | 0.41 | 75 | 1013.3 |
| 20260507203041 | 14 | 265 | 0.0 | 4.8 | 0.00 | 0.41 | 0.41 | 72 | 1013.1 |
| 20260507201533 | 15 | 265 | 1.6 | 6.4 | 0.00 | 0.41 | 0.41 | 71 | 1012.8 |
| 20260507200038 | 15 | 265 | 3.2 | 6.4 | 0.00 | 0.41 | 0.41 | 71 | 1012.6 |
| 20260507194533 | 15 | 265 | 1.6 | 4.8 | 0.00 | 0.41 | 0.41 | 70 | 1012.4 |
| 20260507193031 | 15 | 265 | 1.6 | 6.4 | 0.00 | 0.41 | 0.41 | 69 | 1012.2 |
| 20260507191532 | 15 | 265 | 4.8 | 8.0 | 0.00 | 0.41 | 0.41 | 71 | 1011.9 |
| 20260507190030 | 14 | 265 | 1.6 | 4.8 | 0.00 | 0.41 | 0.41 | 72 | 1011.8 |
| 20260507184529 | 15 | 266 | 0.0 | 4.8 | 0.00 | 0.41 | 0.41 | 70 | 1011.5 |
| 20260507183029 | 16 | 266 | 1.6 | 6.4 | 0.00 | 0.41 | 0.41 | 67 | 1011.4 |
| 20260507181531 | 16 | 266 | 0.0 | 6.4 | 0.00 | 0.41 | 0.41 | 68 | 1011.2 |
| 20260507180034 | 16 | 265 | 1.6 | 6.4 | 0.00 | 0.41 | 0.41 | 70 | 1011.1 |
| 20260507174527 | 17 | 262 | 6.4 | 11.3 | 0.00 | 0.41 | 0.41 | 61 | 1010.9 |
| 20260507173031 | 17 | 267 | 6.4 | 9.7 | 0.00 | 0.41 | 0.41 | 62 | 1010.8 |
| 20260507171526 | 17 | 263 | 6.4 | 11.3 | 0.00 | 0.41 | 0.41 | 64 | 1010.8 |
| 20260507170025 | 17 | 258 | 8.0 | 11.3 | 0.00 | 0.41 | 0.41 | 62 | 1010.7 |
| 20260507164526 | 18 | 255 | 3.2 | 9.7 | 0.00 | 0.43 | 0.41 | 61 | 1010.6 |
| 20260507163023 | 19 | 252 | 1.6 | 4.8 | 0.00 | 0.43 | 0.41 | 61 | 1010.6 |
| 20260507161523 | 19 | 252 | 1.6 | 8.0 | 0.00 | 0.43 | 0.41 | 61 | 1010.6 |
| 20260507160022 | 19 | 291 | 1.6 | 4.8 | 0.00 | 0.43 | 0.41 | 61 | 1010.6 |
| 20260507154522 | 19 | 289 | 1.6 | 6.4 | 0.00 | 1.42 | 0.41 | 58 | 1010.7 |
| 20260507153020 | 20 | 256 | 0.0 | 4.8 | 0.00 | 1.42 | 0.41 | 50 | 1010.5 |
| 20260507151521 | 20 | 279 | 3.2 | 6.4 | 0.00 | 1.42 | 0.41 | 49 | 1010.6 |
| 20260507150024 | 20 | 247 | 3.2 | 8.0 | 0.00 | 1.42 | 0.41 | 53 | 1010.6 |
| 20260507144524 | 20 | 227 | 6.4 | 14.5 | 0.00 | 2.13 | 0.41 | 52 | 1010.6 |
| 20260507143020 | 20 | 127 | 8.0 | 20.9 | 0.00 | 2.13 | 0.41 | 50 | 1010.5 |
| 20260507141516 | 21 | 40 | 1.6 | 11.3 | 0.00 | 2.13 | 0.41 | 51 | 1010.7 |
| 20260507140015 | 20 | 65 | 3.2 | 11.3 | 0.00 | 2.13 | 0.41 | 50 | 1010.8 |
| 20260507134616 | 19 | 250 | 1.6 | 8.0 | 0.00 | 2.16 | 0.41 | 52 | 1011.0 |
| 20260507133012 | 20 | 159 | 1.6 | 6.4 | 0.00 | 2.16 | 0.41 | 53 | 1011.0 |
| 20260507131510 | 20 | 241 | 0.0 | 11.3 | 0.00 | 2.16 | 0.41 | 52 | 1011.2 |
| 20260507130009 | 20 | 240 | 0.0 | 14.5 | 0.00 | 2.29 | 0.41 | 53 | 1011.3 |
| 20260507124510 | 19 | 212 | 3.2 | 9.7 | 0.00 | 2.29 | 0.41 | 55 | 1011.4 |
| 20260507123009 | 19 | 225 | 3.2 | 8.0 | 0.00 | 2.29 | 0.41 | 56 | 1011.6 |
| 20260507121505 | 19 | 38 | 1.6 | 6.4 | 0.00 | 2.29 | 0.41 | 55 | 1011.5 |
| 20260507120006 | 18 | 269 | 0.0 | 3.2 | 0.00 | 2.31 | 0.41 | 59 | 1011.7 |
| 20260507114506 | 18 | 111 | 0.0 | 4.8 | 0.00 | 2.31 | 0.41 | 61 | 1011.8 |
| 20260507113005 | 18 | 113 | 0.0 | 12.9 | 0.00 | 2.31 | 0.41 | 60 | 1011.9 |
| 20260507111503 | 18 | 125 | 8.0 | 12.9 | 0.00 | 2.31 | 0.41 | 62 | 1012.0 |
| 20260507110100 | 17 | 276 | 1.6 | 6.4 | 0.00 | 2.31 | 0.41 | 62 | 1012.2 |
| 20260507104558 | 17 | 277 | 1.6 | 8.0 | 0.00 | 2.31 | 0.41 | 63 | 1012.4 |
| 20260507103056 | 17 | 95 | 1.6 | 16.1 | 0.00 | 2.31 | 0.41 | 62 | 1012.4 |
| 20260507101603 | 17 | 51 | 4.8 | 11.3 | 0.00 | 2.31 | 0.41 | 62 | 1012.5 |
| 20260507100056 | 16 | 311 | 3.2 | 9.7 | 0.00 | 2.31 | 0.41 | 62 | 1012.6 |
| 20260507094551 | 16 | 59 | 1.6 | 9.7 | 0.00 | 2.49 | 0.41 | 61 | 1012.7 |
| 20260507093049 | 16 | 28 | 4.8 | 11.3 | 0.00 | 2.49 | 0.41 | 66 | 1012.7 |
| 20260507091547 | 15 | 335 | 4.8 | 11.3 | 0.00 | 2.49 | 0.41 | 69 | 1012.7 |
| 20260507090047 | 15 | 323 | 4.8 | 14.5 | 0.00 | 2.49 | 0.41 | 72 | 1012.7 |
| 20260507084553 | 13 | 323 | 4.8 | 14.5 | 0.00 | 2.72 | 0.41 | 73 | 1012.8 |
| 20260507083037 | 13 | 281 | 8.0 | 14.5 | 0.00 | 2.72 | 0.41 | 76 | 1012.8 |
| 20260507081535 | 13 | 256 | 6.4 | 19.3 | 0.00 | 2.72 | 0.41 | 77 | 1012.7 |
| 20260507080031 | 12 | 318 | 8.0 | 19.3 | 0.00 | 2.72 | 0.41 | 78 | 1012.8 |
| 20260507074530 | 12 | 310 | 8.0 | 24.1 | 0.00 | 2.74 | 0.41 | 78 | 1012.6 |
| 20260507073028 | 12 | 329 | 9.7 | 22.5 | 0.00 | 2.74 | 0.41 | 79 | 1012.5 |
| 20260507071525 | 12 | 313 | 11.3 | 17.7 | 0.00 | 2.74 | 0.41 | 80 | 1012.5 |
| 20260507070030 | 12 | 354 | 8.0 | 16.1 | 0.00 | 2.74 | 0.41 | 80 | 1012.4 |
| 20260507064524 | 12 | 15 | 9.7 | 17.7 | 0.00 | 2.77 | 0.41 | 82 | 1012.4 |
| 20260507063019 | 11 | 349 | 9.7 | 24.1 | 0.05 | 2.77 | 0.41 | 84 | 1012.2 |
| 20260507061518 | 10 | 283 | 8.0 | 19.3 | 0.08 | 2.77 | 0.41 | 86 | 1012.1 |
| 20260507060017 | 10 | 310 | 8.0 | 19.3 | 0.08 | 2.77 | 0.41 | 86 | 1012.1 |
| 20260507054520 | 10 | 319 | 8.0 | 19.3 | 0.08 | 2.84 | 0.41 | 86 | 1012.0 |
| 20260507053015 | 11 | 292 | 4.8 | 17.7 | 0.03 | 2.79 | 0.36 | 85 | 1011.9 |
| 20260507051512 | 11 | 261 | 4.8 | 16.1 | 0.00 | 2.77 | 0.33 | 84 | 1011.7 |
| 20260507050010 | 11 | 326 | 6.4 | 14.5 | 0.00 | 2.84 | 0.33 | 84 | 1011.5 |
| 20260507044508 | 11 | 285 | 8.0 | 17.7 | 0.00 | 2.84 | 0.33 | 85 | 1011.3 |
| 20260507043018 | 10 | 315 | 12.9 | 22.5 | 0.00 | 2.84 | 0.33 | 85 | 1011.2 |
| 20260507041508 | 11 | 359 | 11.3 | 16.1 | 0.00 | 2.84 | 0.33 | 84 | 1011.1 |
| 20260507040007 | 11 | 292 | 3.2 | 11.3 | 0.00 | 2.84 | 0.33 | 83 | 1010.9 |
| 20260507034505 | 11 | 325 | 11.3 | 24.1 | 0.00 | 2.84 | 0.33 | 82 | 1011.0 |
| 20260507033004 | 10 | 274 | 9.7 | 17.7 | 0.00 | 2.84 | 0.33 | 83 | 1011.0 |
| 20260507031503 | 11 | 344 | 12.9 | 24.1 | 0.00 | 2.84 | 0.33 | 84 | 1011.0 |
| 20260507030003 | 11 | 322 | 9.7 | 20.9 | 0.00 | 2.84 | 0.33 | 84 | 1010.9 |
| 20260507024508 | 10 | 336 | 8.0 | 24.1 | 0.03 | 2.84 | 0.33 | 86 | 1011.0 |
| 20260507023100 | 10 | 317 | 11.3 | 24.1 | 0.20 | 2.84 | 0.33 | 86 | 1011.1 |
| 20260507021603 | 10 | 302 | 11.3 | 20.9 | 0.28 | 2.84 | 0.33 | 87 | 1011.1 |
| 20260507020112 | 10 | 336 | 12.9 | 24.1 | 0.28 | 2.84 | 0.33 | 87 | 1011.1 |
| 20260507014556 | 10 | 296 | 11.3 | 25.7 | 0.25 | 2.84 | 0.30 | 86 | 1010.9 |
| 20260507013056 | 11 | 300 | 8.0 | 17.7 | 0.10 | 2.69 | 0.13 | 84 | 1010.8 |
| 20260507011550 | 11 | 342 | 6.4 | 17.7 | 0.03 | 2.62 | 0.05 | 84 | 1010.5 |
| 20260507010053 | 10 | 271 | 8.0 | 17.7 | 0.03 | 2.62 | 0.05 | 85 | 1010.3 |
| 20260507004559 | 11 | 313 | 8.0 | 22.5 | 0.05 | 2.62 | 0.05 | 85 | 1010.5 |
| 20260507003049 | 11 | 291 | 17.7 | 29.0 | 0.03 | 2.59 | 0.03 | 83 | 1010.6 |
| 20260507001546 | 11 | 307 | 11.3 | 22.5 | 0.03 | 2.59 | 0.03 | 82 | 1010.6 |
| 20260507000042 | 11 | 326 | 12.9 | 24.1 | 0.03 | 2.59 | 0.03 | 84 | 1010.6 |
| 20260506234544 | 11 | 317 | 11.3 | 32.2 | 0.00 | 2.67 | 0.00 | 84 | 1010.8 |
| 20260506233039 | 11 | 308 | 17.7 | 32.2 | 0.00 | 2.67 | 0.00 | 83 | 1010.6 |
| 20260506231535 | 11 | 337 | 14.5 | 24.1 | 0.00 | 2.67 | 0.00 | 82 | 1010.6 |
| 20260506230044 | 11 | 331 | 9.7 | 30.6 | 0.00 | 2.67 | 0.00 | 82 | 1010.4 |
| 20260506224534 | 11 | 295 | 14.5 | 37.0 | 0.00 | 3.07 | 0.00 | 83 | 1010.4 |
| 20260506223040 | 11 | 314 | 14.5 | 27.4 | 0.00 | 3.07 | 0.00 | 83 | 1010.5 |
| 20260506221526 | 11 | 292 | 12.9 | 27.4 | 0.00 | 3.07 | 0.00 | 83 | 1010.4 |
| 20260506220025 | 11 | 319 | 11.3 | 27.4 | 0.00 | 3.07 | 0.00 | 83 | 1010.4 |
| 20260506214536 | 11 | 327 | 9.7 | 17.7 | 0.00 | 3.30 | 3.07 | 83 | 1010.2 |
| 20260506213023 | 11 | 290 | 8.0 | 16.1 | 0.00 | 3.30 | 3.07 | 84 | 1010.2 |